createdAt,value
2023-05-16T00:01:09.434Z,100882.19
2023-05-16T00:03:38.262Z,100870.88
2023-05-16T00:06:06.025Z,100874.59
2023-05-16T00:08:32.986Z,100867.16
2023-05-16T00:10:59.824Z,100867.78
2023-05-16T00:13:26.782Z,100869.44
2023-05-16T00:15:55.458Z,100866.13
2023-05-16T00:18:23.218Z,100866.09
2023-05-16T00:20:50.872Z,100858.72
2023-05-16T00:23:17.802Z,100860.13
2023-05-16T00:25:45.142Z,100860.78
2023-05-16T00:28:11.977Z,100864.88
2023-05-16T00:30:38.892Z,100864.88
2023-05-16T00:33:05.915Z,100858.47
2023-05-16T00:35:32.955Z,100857.47
2023-05-16T00:37:59.831Z,100856.03
2023-05-16T00:40:26.956Z,100848.44
2023-05-16T00:42:53.974Z,100843.66
2023-05-16T00:45:20.842Z,100844.47
2023-05-16T00:47:48.110Z,100841.59
2023-05-16T00:50:37.408Z,100849.22
2023-05-16T00:53:04.483Z,100840.13
2023-05-16T00:55:32.538Z,100840.78
2023-05-16T00:58:01.271Z,100831.25
2023-05-16T01:00:28.516Z,100839.53
2023-05-16T01:02:56.396Z,100830.63
2023-05-16T01:05:30.550Z,100829.81
2023-05-16T01:07:57.436Z,100826.34
2023-05-16T01:10:25.076Z,100822.81
2023-05-16T01:13:18.490Z,100816.63
2023-05-16T01:15:59.963Z,100820.38
2023-05-16T01:18:40.881Z,100812.13
2023-05-16T01:21:17.136Z,100818.91
2023-05-16T01:24:13.732Z,100815.00
2023-05-16T01:26:41.962Z,100815.63
2023-05-16T01:29:09.013Z,100818.50
2023-05-16T01:31:36.069Z,100802.22
2023-05-16T01:34:03.147Z,100803.66
2023-05-16T01:36:40.439Z,100792.34
2023-05-16T01:39:19.955Z,100791.09
2023-05-16T01:42:04.688Z,100792.13
2023-05-16T01:45:00.005Z,100791.09
2023-05-16T01:47:28.928Z,100784.34
2023-05-16T01:50:15.692Z,100787.00
2023-05-16T01:53:03.301Z,100786.38
2023-05-16T01:55:51.162Z,100794.41
2023-05-16T01:58:21.610Z,100801.22
2023-05-16T02:00:48.524Z,100787.81
2023-05-16T02:03:15.435Z,100795.44
2023-05-16T02:05:42.355Z,100803.91
2023-05-16T02:08:13.695Z,100798.53
2023-05-16T02:10:41.431Z,100807.59
2023-05-16T02:13:08.168Z,100819.75
2023-05-16T02:15:35.076Z,100819.94
2023-05-16T02:18:01.872Z,100829.84
2023-05-16T02:20:28.624Z,100827.78
2023-05-16T02:22:55.955Z,100829.03
2023-05-16T02:25:22.736Z,100826.97
2023-05-16T02:27:49.463Z,100823.88
2023-05-16T02:30:16.326Z,100813.34
2023-05-16T02:32:45.311Z,100811.28
2023-05-16T02:35:12.508Z,100811.25
2023-05-16T02:37:40.105Z,100809.81
2023-05-16T02:40:08.085Z,100801.19
2023-05-16T02:42:37.962Z,100796.47
2023-05-16T02:45:05.130Z,100804.50
2023-05-16T02:47:32.146Z,100803.06
2023-05-16T02:49:59.906Z,100801.22
2023-05-16T02:52:26.633Z,100800.19
2023-05-16T02:57:23.261Z,100796.69
2023-05-16T02:59:50.030Z,100791.75
2023-05-16T03:02:16.807Z,100782.88
2023-05-16T03:04:43.562Z,100789.06
2023-05-16T03:07:10.834Z,100779.59
2023-05-16T03:09:37.639Z,100783.72
2023-05-16T03:12:06.601Z,100783.28
2023-05-16T03:14:34.853Z,100776.91
2023-05-16T03:17:03.658Z,100783.91
2023-05-16T03:19:30.490Z,100785.34
2023-05-16T03:21:57.701Z,100771.75
2023-05-16T03:24:25.317Z,100773.41
2023-05-16T03:26:52.225Z,100767.84
2023-05-16T03:29:21.341Z,100771.34
2023-05-16T03:31:48.126Z,100770.72
2023-05-16T03:34:14.980Z,100771.31
2023-05-16T03:36:41.866Z,100769.88
2023-05-16T03:39:08.719Z,100769.50
2023-05-16T03:41:35.714Z,100775.25
2023-05-16T03:44:02.482Z,100771.31
2023-05-16T03:46:29.404Z,100774.44
2023-05-16T03:48:56.290Z,100774.84
2023-05-16T03:51:23.364Z,100776.69
2023-05-16T03:53:50.116Z,100778.13
2023-05-16T03:56:17.034Z,100785.34
2023-05-16T03:58:43.837Z,100776.09
2023-05-16T04:01:10.528Z,100777.31
2023-05-16T04:03:38.475Z,100776.91
2023-05-16T04:06:07.696Z,100775.88
2023-05-16T04:08:34.626Z,100775.25
2023-05-16T04:11:01.398Z,100769.88
2023-05-16T04:13:28.166Z,100772.38
2023-05-16T04:15:54.984Z,100767.41
2023-05-16T04:18:21.735Z,100776.91
2023-05-16T04:20:48.464Z,100776.50
2023-05-16T04:23:15.227Z,100775.47
2023-05-16T04:25:42.996Z,100770.94
2023-05-16T04:28:09.796Z,100768.66
2023-05-16T04:30:37.520Z,100775.66
2023-05-16T04:33:04.380Z,100777.31
2023-05-16T04:35:31.222Z,100770.69
2023-05-16T04:37:58.010Z,100773.59
2023-05-16T04:40:25.547Z,100778.34
2023-05-16T04:42:53.454Z,100772.34
2023-05-16T04:45:21.132Z,100773.00
2023-05-16T04:47:47.897Z,100778.94
2023-05-16T04:50:16.211Z,100773.59
2023-05-16T04:52:42.951Z,100773.19
2023-05-16T04:55:11.572Z,100771.75
2023-05-16T04:57:38.320Z,100775.25
2023-05-16T05:00:08.996Z,100779.34
2023-05-16T05:02:36.104Z,100783.66
2023-05-16T05:05:03.427Z,100796.44
2023-05-16T05:07:30.656Z,100786.75
2023-05-16T05:09:57.366Z,100779.16
2023-05-16T05:12:24.169Z,100776.28
2023-05-16T05:14:51.233Z,100782.66
2023-05-16T05:17:20.191Z,100782.25
2023-05-16T05:19:48.133Z,100777.94
2023-05-16T05:22:15.471Z,100787.59
2023-05-16T05:24:42.441Z,100785.75
2023-05-16T05:27:09.206Z,100793.53
2023-05-16T05:29:36.020Z,100795.00
2023-05-16T05:32:02.915Z,100796.84
2023-05-16T05:34:29.863Z,100789.06
2023-05-16T05:36:56.865Z,100790.69
2023-05-16T05:39:24.772Z,100797.72
2023-05-16T05:41:51.489Z,100800.38
2023-05-16T05:44:18.250Z,100803.25
2023-05-16T05:46:45.531Z,100804.28
2023-05-16T05:49:12.545Z,100814.56
2023-05-16T05:51:39.369Z,100804.28
2023-05-16T05:54:06.422Z,100799.34
2023-05-16T05:56:33.538Z,100803.88
2023-05-16T05:59:00.323Z,100805.09
2023-05-16T06:01:27.309Z,100805.31
2023-05-16T06:03:54.163Z,100802.88
2023-05-16T06:06:21.086Z,100804.94
2023-05-16T06:08:47.865Z,100803.47
2023-05-16T06:11:14.681Z,100810.28
2023-05-16T06:13:41.501Z,100809.66
2023-05-16T06:16:09.542Z,100808.81
2023-05-16T06:18:37.986Z,100810.06
2023-05-16T06:21:05.815Z,100803.84
2023-05-16T06:23:33.249Z,100799.25
2023-05-16T06:26:00.325Z,100799.91
2023-05-16T06:28:27.118Z,100795.09
2023-05-16T06:30:53.979Z,100790.97
2023-05-16T06:33:21.072Z,100783.75
2023-05-16T06:35:48.760Z,100792.19
2023-05-16T06:38:16.048Z,100795.06
2023-05-16T06:40:42.878Z,100797.31
2023-05-16T06:43:09.725Z,100792.13
2023-05-16T06:45:36.608Z,100792.53
2023-05-16T06:48:05.108Z,100798.28
2023-05-16T06:50:31.979Z,100799.06
2023-05-16T06:52:58.818Z,100804.50
2023-05-16T06:55:25.965Z,100801.38
2023-05-16T06:57:52.984Z,100804.69
2023-05-16T07:00:20.388Z,100811.50
2023-05-16T07:02:47.278Z,100809.09
2023-05-16T07:05:14.085Z,100806.78
2023-05-16T07:07:40.971Z,100814.22
2023-05-16T07:10:08.174Z,100814.22
2023-05-16T07:12:38.407Z,100812.16
2023-05-16T07:15:06.057Z,100811.75
2023-05-16T07:17:33.194Z,100814.75
2023-05-16T07:20:00.784Z,100814.16
2023-05-16T07:22:28.578Z,100812.28
2023-05-16T07:24:57.262Z,100811.94
2023-05-16T07:27:24.032Z,100829.72
2023-05-16T07:29:50.849Z,100829.88
2023-05-16T07:32:18.255Z,100825.78
2023-05-16T07:34:45.073Z,100823.09
2023-05-16T07:37:13.112Z,100830.03
2023-05-16T07:39:40.549Z,100837.38
2023-05-16T07:42:08.483Z,100831.69
2023-05-16T07:44:36.154Z,100828.84
2023-05-16T07:47:03.435Z,100829.59
2023-05-16T07:49:30.249Z,100831.88
2023-05-16T07:51:57.088Z,100831.00
2023-05-16T07:54:23.871Z,100810.09
2023-05-16T07:56:50.668Z,100829.84
2023-05-16T07:59:17.545Z,100821.28
2023-05-16T08:01:44.468Z,100820.78
2023-05-16T08:04:11.380Z,100821.13
2023-05-16T08:06:38.175Z,100819.53
2023-05-16T08:09:04.991Z,100829.13
2023-05-16T08:11:31.845Z,100829.78
2023-05-16T08:13:58.643Z,100832.97
2023-05-16T08:16:25.784Z,100828.22
2023-05-16T08:18:52.755Z,100825.56
2023-05-16T08:21:19.640Z,100823.28
2023-05-16T08:23:46.372Z,100825.09
2023-05-16T08:26:13.159Z,100830.50
2023-05-16T08:28:40.009Z,100820.50
2023-05-16T08:31:06.901Z,100821.53
2023-05-16T08:33:36.460Z,100813.47
2023-05-16T08:36:03.441Z,100805.28
2023-05-16T08:38:30.279Z,100811.75
2023-05-16T08:40:57.240Z,100816.28
2023-05-16T08:43:24.195Z,100813.97
2023-05-16T08:45:51.032Z,100820.63
2023-05-16T08:48:23.039Z,100814.66
2023-05-16T08:50:50.055Z,100809.63
2023-05-16T08:53:27.850Z,100807.38
2023-05-16T08:55:57.117Z,100810.06
2023-05-16T08:58:24.735Z,100812.19
2023-05-16T09:00:51.991Z,100810.69
2023-05-16T09:03:21.075Z,100803.78
2023-05-16T09:05:48.178Z,100809.34
2023-05-16T09:08:14.969Z,100803.19
2023-05-16T09:10:41.920Z,100804.28
2023-05-16T09:13:08.721Z,100800.97
2023-05-16T09:15:35.672Z,100796.13
2023-05-16T09:18:03.227Z,100806.56
2023-05-16T09:20:33.016Z,100798.09
2023-05-16T09:23:00.169Z,100795.38
2023-05-16T09:25:31.296Z,100798.03
2023-05-16T09:28:01.534Z,100803.13
2023-05-16T09:30:31.738Z,100795.13
2023-05-16T09:32:59.417Z,100798.38
2023-05-16T09:35:43.246Z,100793.34
2023-05-16T09:38:18.002Z,100799.91
2023-05-16T09:40:45.700Z,100808.31
2023-05-16T09:43:16.507Z,100801.34
2023-05-16T09:45:48.934Z,100810.25
2023-05-16T09:48:17.128Z,100802.00
2023-05-16T09:50:54.600Z,100800.88
2023-05-16T09:53:28.595Z,100802.78
2023-05-16T09:56:02.452Z,100800.28
2023-05-16T09:58:33.264Z,100803.56
2023-05-16T10:01:00.650Z,100803.19
2023-05-16T10:03:28.221Z,100802.88
2023-05-16T10:05:55.994Z,100811.28
2023-05-16T10:08:28.086Z,100805.25
2023-05-16T10:10:56.898Z,100811.31
2023-05-16T10:13:28.985Z,100805.44
2023-05-16T10:15:57.461Z,100802.91
2023-05-16T10:18:32.047Z,100812.53
2023-05-16T10:21:15.154Z,100815.78
2023-05-16T10:23:43.243Z,100809.63
2023-05-16T10:26:14.309Z,100809.50
2023-05-16T10:28:41.768Z,100820.31
2023-05-16T10:31:11.125Z,100812.66
2023-05-16T10:33:39.174Z,100810.50
2023-05-16T10:36:08.050Z,100813.00
2023-05-16T10:38:35.642Z,100806.19
2023-05-16T10:41:02.930Z,100809.88
2023-05-16T10:43:31.178Z,100806.50
2023-05-16T10:46:03.260Z,100811.16
2023-05-16T10:48:34.954Z,100808.44
2023-05-16T10:51:03.713Z,100806.84
2023-05-16T10:53:34.846Z,100810.22
2023-05-16T10:56:01.656Z,100803.25
2023-05-16T10:58:31.463Z,100813.94
2023-05-16T11:01:21.084Z,100815.59
2023-05-16T11:03:57.192Z,100812.88
2023-05-16T11:06:26.213Z,100807.72
2023-05-16T11:09:06.160Z,100801.50
2023-05-16T11:11:53.962Z,100804.34
2023-05-16T11:14:33.025Z,100800.41
2023-05-16T11:17:09.454Z,100794.44
2023-05-16T11:19:47.431Z,100794.03
2023-05-16T11:22:17.131Z,100786.63
2023-05-16T11:25:02.814Z,100787.69
2023-05-16T11:27:32.230Z,100794.88
2023-05-16T11:30:11.104Z,100786.84
2023-05-16T11:32:39.689Z,100799.56
2023-05-16T11:35:09.029Z,100791.97
2023-05-16T11:37:39.780Z,100791.78
2023-05-16T11:40:09.576Z,100780.47
2023-05-16T11:42:39.374Z,100782.66
2023-05-16T11:45:12.403Z,100789.59
2023-05-16T11:47:41.024Z,100783.94
2023-05-16T11:50:12.745Z,100780.91
2023-05-16T11:52:40.302Z,100776.63
2023-05-16T11:55:11.032Z,100777.03
2023-05-16T11:57:44.499Z,100781.00
2023-05-16T12:00:19.658Z,100765.63
2023-05-16T12:02:48.003Z,100769.75
2023-05-16T12:05:16.951Z,100769.84
2023-05-16T12:07:44.914Z,100768.97
2023-05-16T12:10:13.502Z,100772.34
2023-05-16T12:12:45.296Z,100779.41
2023-05-16T12:15:12.086Z,100773.63
2023-05-16T12:17:40.939Z,100764.69
2023-05-16T12:20:14.749Z,100776.44
2023-05-16T12:22:44.299Z,100772.16
2023-05-16T12:25:29.827Z,100769.50
2023-05-16T12:28:01.982Z,100756.72
2023-05-16T12:30:29.770Z,100767.78
2023-05-16T12:33:05.106Z,100762.41
2023-05-16T12:35:35.702Z,100754.69
2023-05-16T12:38:06.662Z,100745.09
2023-05-16T12:40:33.560Z,100738.00
2023-05-16T12:43:01.114Z,100744.88
2023-05-16T12:45:28.120Z,100744.56
2023-05-16T12:47:54.966Z,100756.94
2023-05-16T12:50:23.081Z,100749.56
2023-05-16T12:52:51.474Z,100758.78
2023-05-16T12:55:19.704Z,100749.56
2023-05-16T12:57:48.264Z,100745.94
2023-05-16T13:00:18.894Z,100753.25
2023-05-16T13:02:47.586Z,100744.91
2023-05-16T13:05:15.051Z,100741.19
2023-05-16T13:07:42.119Z,100729.44
2023-05-16T13:10:10.863Z,100740.38
2023-05-16T13:12:39.194Z,100745.59
2023-05-16T13:15:07.634Z,100753.06
2023-05-16T13:17:44.278Z,100747.25
2023-05-16T13:20:15.176Z,100746.63
2023-05-16T13:22:43.594Z,100748.00
2023-05-16T13:25:11.374Z,100758.25
2023-05-16T13:27:38.301Z,100754.91
2023-05-16T13:30:05.899Z,100761.09
2023-05-16T13:32:32.966Z,100754.41
2023-05-16T13:34:59.815Z,100755.44
2023-05-16T13:37:26.701Z,100759.38
2023-05-16T13:39:56.316Z,100761.00
2023-05-16T13:42:23.198Z,100756.41
2023-05-16T13:44:51.471Z,100763.72
2023-05-16T13:47:18.251Z,100763.78
2023-05-16T13:49:47.966Z,100760.88
2023-05-16T13:52:15.019Z,100756.06
2023-05-16T13:54:41.857Z,100768.31
2023-05-16T13:57:08.749Z,100757.03
2023-05-16T13:59:59.253Z,100763.03
2023-05-16T14:02:22.936Z,100749.78
2023-05-16T14:04:50.179Z,100753.66
2023-05-16T14:07:17.181Z,100757.16
2023-05-16T14:09:44.674Z,100757.09
2023-05-16T14:12:11.613Z,100745.94
2023-05-16T14:14:38.652Z,100743.19
2023-05-16T14:17:05.435Z,100742.69
2023-05-16T14:19:32.350Z,100744.72
2023-05-16T14:21:59.209Z,100753.72
2023-05-16T14:24:26.605Z,100761.91
2023-05-16T14:26:58.381Z,100761.91
2023-05-16T14:29:25.745Z,100755.44
2023-05-16T14:31:53.167Z,100759.47
2023-05-16T14:34:22.366Z,100751.25
2023-05-16T14:36:49.666Z,100737.69
2023-05-16T14:39:16.612Z,100729.75
2023-05-16T14:41:43.697Z,100715.38
2023-05-16T14:44:10.509Z,100706.22
2023-05-16T14:46:37.534Z,100700.84
2023-05-16T14:49:04.926Z,100694.13
2023-05-16T14:51:32.407Z,100694.13
2023-05-16T14:53:59.261Z,100688.16
2023-05-16T14:56:27.004Z,100698.75
2023-05-16T14:58:54.259Z,100697.53
2023-05-16T15:01:21.561Z,100700.41
2023-05-16T15:03:55.502Z,100714.59
2023-05-16T15:06:24.851Z,100726.63
2023-05-16T15:08:51.922Z,100726.22
2023-05-16T15:11:18.742Z,100726.53
2023-05-16T15:13:45.535Z,100738.00
2023-05-16T15:16:12.504Z,100741.16
2023-05-16T15:18:40.518Z,100733.56
2023-05-16T15:21:07.588Z,100733.50
2023-05-16T15:23:34.576Z,100742.44
2023-05-16T15:26:01.361Z,100750.66
2023-05-16T15:28:28.099Z,100750.88
2023-05-16T15:30:54.964Z,100750.34
2023-05-16T15:33:21.750Z,100750.81
2023-05-16T15:35:48.601Z,100750.41
2023-05-16T15:38:15.689Z,100749.56
2023-05-16T15:40:42.666Z,100757.94
2023-05-16T15:43:09.493Z,100760.47
2023-05-16T15:45:39.866Z,100766.69
2023-05-16T15:48:07.459Z,100764.66
2023-05-16T15:50:34.344Z,100767.69
2023-05-16T15:53:01.211Z,100760.84
2023-05-16T15:55:28.294Z,100757.13
2023-05-16T15:57:57.438Z,100763.59
2023-05-16T16:00:25.026Z,100753.84
2023-05-16T16:02:52.315Z,100747.69
2023-05-16T16:05:19.183Z,100747.09
2023-05-16T16:07:46.095Z,100744.41
2023-05-16T16:10:12.972Z,100742.53
2023-05-16T16:12:39.914Z,100739.31
2023-05-16T16:15:07.536Z,100748.44
2023-05-16T16:17:34.467Z,100747.56
2023-05-16T16:20:01.412Z,100751.56
2023-05-16T16:22:28.313Z,100751.13
2023-05-16T16:24:56.149Z,100753.66
2023-05-16T16:27:23.557Z,100751.13
2023-05-16T16:29:50.403Z,100754.47
2023-05-16T16:32:17.249Z,100755.94
2023-05-16T16:34:44.003Z,100756.38
2023-05-16T16:37:11.625Z,100765.72
2023-05-16T16:39:38.740Z,100767.34
2023-05-16T16:42:06.225Z,100775.00
2023-05-16T16:44:33.141Z,100763.22
2023-05-16T16:46:59.957Z,100774.41
2023-05-16T16:49:26.866Z,100762.84
2023-05-16T16:51:53.738Z,100774.25
2023-05-16T16:54:22.387Z,100777.38
2023-05-16T16:56:49.834Z,100778.81
2023-05-16T16:59:16.852Z,100781.28
2023-05-16T17:01:44.006Z,100792.59
2023-05-16T17:04:11.958Z,100791.59
2023-05-16T17:06:38.737Z,100802.16
2023-05-16T17:09:07.008Z,100802.22
2023-05-16T17:11:36.390Z,100789.19
2023-05-16T17:14:05.863Z,100792.97
2023-05-16T17:16:33.499Z,100792.13
2023-05-16T17:19:00.447Z,100795.44
2023-05-16T17:21:28.141Z,100784.63
2023-05-16T17:23:55.385Z,100796.56
2023-05-16T17:26:22.232Z,100798.22
2023-05-16T17:28:49.310Z,100799.44
2023-05-16T17:31:16.295Z,100804.66
2023-05-16T17:33:43.080Z,100803.19
2023-05-16T17:36:10.755Z,100801.09
2023-05-16T17:38:37.803Z,100805.84
2023-05-16T17:41:04.818Z,100796.22
2023-05-16T17:43:31.678Z,100801.34
2023-05-16T17:45:58.556Z,100805.34
2023-05-16T17:48:25.436Z,100817.34
2023-05-16T17:50:55.079Z,100819.88
2023-05-16T17:53:21.955Z,100822.00
2023-05-16T17:55:49.718Z,100824.59
2023-05-16T17:58:17.970Z,100835.88
2023-05-16T18:00:46.640Z,100842.00
2023-05-16T18:03:13.582Z,100837.16
2023-05-16T18:05:40.588Z,100849.84
2023-05-16T18:08:08.650Z,100842.78
2023-05-16T18:10:50.370Z,100853.00
2023-05-16T18:13:17.632Z,100851.81
2023-05-16T18:15:44.460Z,100851.59
2023-05-16T18:18:11.785Z,100851.81
2023-05-16T18:20:38.910Z,100847.72
2023-05-16T18:23:05.690Z,100856.41
2023-05-16T18:25:32.476Z,100862.63
2023-05-16T18:27:59.301Z,100866.97
2023-05-16T18:30:26.432Z,100872.47
2023-05-16T18:32:53.377Z,100878.81
2023-05-16T18:35:20.346Z,100878.72
2023-05-16T18:37:47.328Z,100886.59
2023-05-16T18:40:14.227Z,100899.38
2023-05-16T18:42:41.095Z,100896.66
2023-05-16T18:45:08.480Z,100900.28
2023-05-16T18:47:35.264Z,100901.22
2023-05-16T18:50:02.764Z,100905.00
2023-05-16T18:52:29.586Z,100907.44
2023-05-16T18:54:56.652Z,100902.06
2023-05-16T18:57:23.427Z,100919.97
2023-05-16T18:59:53.569Z,100913.91
2023-05-16T19:02:27.222Z,100916.59
2023-05-16T19:05:01.702Z,100926.31
2023-05-16T19:07:28.691Z,100928.19
2023-05-16T19:09:55.505Z,100923.63
2023-05-16T19:12:24.144Z,100924.44
2023-05-16T19:14:51.518Z,100930.28
2023-05-16T19:17:18.421Z,100936.38
2023-05-16T19:19:45.389Z,100939.28
2023-05-16T19:22:12.293Z,100932.44
2023-05-16T19:24:39.018Z,100938.88
2023-05-16T19:27:06.058Z,100946.00
2023-05-16T19:29:32.806Z,100942.28
2023-05-16T19:31:59.706Z,100964.41
2023-05-16T19:34:26.793Z,100957.97
2023-05-16T19:36:53.882Z,100961.28
2023-05-16T19:39:20.648Z,100964.66
2023-05-16T19:41:51.633Z,100983.16
2023-05-16T19:44:22.703Z,100979.44
2023-05-16T19:46:49.546Z,100976.22
2023-05-16T19:49:19.509Z,100981.16
2023-05-16T19:51:53.386Z,100985.50
2023-05-16T19:54:20.147Z,100987.38
2023-05-16T19:56:47.093Z,100987.13
2023-05-16T19:59:14.056Z,100986.66
2023-05-16T20:04:12.934Z,101005.59
2023-05-16T20:06:40.002Z,101005.38
2023-05-16T20:09:07.381Z,101012.97
2023-05-16T20:11:34.382Z,101010.13
2023-05-16T20:14:01.182Z,101013.28
2023-05-16T20:16:28.031Z,101012.84
2023-05-16T20:18:54.861Z,101014.50
2023-05-16T20:21:21.743Z,101020.50
2023-05-16T20:23:48.571Z,101028.56
2023-05-16T20:26:15.569Z,101026.47
2023-05-16T20:28:42.465Z,101022.94
2023-05-16T20:31:09.252Z,101035.59
2023-05-16T20:33:36.298Z,101040.16
2023-05-16T20:36:03.471Z,101045.56
2023-05-16T20:38:30.315Z,101043.09
2023-05-16T20:40:57.194Z,101041.44
2023-05-16T20:43:26.506Z,101043.31
2023-05-16T20:45:55.286Z,101043.78
2023-05-16T20:48:22.125Z,101046.47
2023-05-16T20:50:48.982Z,101047.75
2023-05-16T20:53:15.832Z,101055.81
2023-05-16T20:55:42.644Z,101063.91
2023-05-16T20:58:09.449Z,101062.09
2023-05-16T21:00:36.299Z,101067.72
2023-05-16T21:03:03.341Z,101075.28
2023-05-16T21:05:30.228Z,101074.06
2023-05-16T21:07:57.064Z,101071.75
2023-05-16T21:10:23.920Z,101070.94
2023-05-16T21:12:50.938Z,101083.72
2023-05-16T21:15:17.723Z,101094.25
2023-05-16T21:17:44.609Z,101091.81
2023-05-16T21:20:11.686Z,101099.53
2023-05-16T21:22:38.552Z,101101.81
2023-05-16T21:25:05.839Z,101104.53
2023-05-16T21:27:33.042Z,101101.47
2023-05-16T21:30:02.727Z,101097.75
2023-05-16T21:32:32.419Z,101109.03
2023-05-16T21:35:04.228Z,101111.50
2023-05-16T21:37:31.008Z,101103.66
2023-05-16T21:39:57.791Z,101108.63
2023-05-16T21:42:24.652Z,101112.13
2023-05-16T21:44:51.640Z,101116.09
2023-05-16T21:47:18.417Z,101114.84
2023-05-16T21:49:45.494Z,101115.28
2023-05-16T21:52:12.401Z,101117.00
2023-05-16T21:54:39.182Z,101113.31
2023-05-16T21:57:06.564Z,101122.44
2023-05-16T21:59:33.536Z,101124.38
2023-05-16T22:02:00.328Z,101122.22
2023-05-16T22:04:27.441Z,101125.34
2023-05-16T22:06:54.396Z,101114.66
2023-05-16T22:09:21.160Z,101114.31
2023-05-16T22:11:47.941Z,101115.63
2023-05-16T22:14:14.740Z,101121.63
2023-05-16T22:16:41.576Z,101119.13
2023-05-16T22:19:09.108Z,101128.06
2023-05-16T22:21:36.147Z,101133.59
2023-05-16T22:24:03.329Z,101133.84
2023-05-16T22:26:30.147Z,101130.13
2023-05-16T22:28:56.975Z,101132.28
2023-05-16T22:31:23.724Z,101131.22
2023-05-16T22:33:50.557Z,101139.72
2023-05-16T22:36:17.367Z,101140.16
2023-05-16T22:38:44.191Z,101133.34
2023-05-16T22:41:11.008Z,101142.25
2023-05-16T22:43:38.442Z,101137.97
2023-05-16T22:46:05.413Z,101150.78
2023-05-16T22:48:32.262Z,101138.75
2023-05-16T22:50:59.741Z,101147.63
2023-05-16T22:53:26.708Z,101141.88
2023-05-16T22:55:53.499Z,101136.06
2023-05-16T22:58:20.378Z,101138.81
2023-05-16T23:00:47.166Z,101149.16
2023-05-16T23:03:14.086Z,101137.19
2023-05-16T23:05:41.114Z,101135.97
2023-05-16T23:08:07.927Z,101140.53
2023-05-16T23:10:34.996Z,101141.16
2023-05-16T23:13:01.921Z,101146.72
2023-05-16T23:15:29.074Z,101141.34
2023-05-16T23:17:57.709Z,101145.69
2023-05-16T23:20:24.576Z,101140.53
2023-05-16T23:22:51.402Z,101143.59
2023-05-16T23:25:18.310Z,101138.88
2023-05-16T23:27:45.110Z,101147.94
2023-05-16T23:30:12.286Z,101136.78
2023-05-16T23:32:39.118Z,101141.34
2023-05-16T23:35:06.502Z,101148.97
2023-05-16T23:37:33.359Z,101152.47
2023-05-16T23:40:00.146Z,101140.09
2023-05-16T23:42:26.956Z,101153.72
2023-05-16T23:44:53.699Z,101148.97
2023-05-16T23:47:20.538Z,101143.59
2023-05-16T23:49:47.353Z,101149.41
2023-05-16T23:52:14.173Z,101154.97
2023-05-16T23:54:41.083Z,101152.09
2023-05-16T23:57:07.964Z,101151.25
2023-05-16T23:59:34.767Z,101157.88
